sensor_id;sensor_type;location;lat;lon;timestamp;pressure;altitude;pressure_sealevel;temperature;humidity
15193;BME280;7697;51.630;7.484;2024-01-10T00:04:33;-16967.03;;;-3.35;65.19
15193;BME280;7697;51.630;7.484;2024-01-10T00:09:35;-16963.19;;;-3.47;64.44
15193;BME280;7697;51.630;7.484;2024-01-10T00:14:38;-16963.19;;;-3.47;64.93
15193;BME280;7697;51.630;7.484;2024-01-10T00:19:40;-16961.19;;;-3.53;64.81
15193;BME280;7697;51.630;7.484;2024-01-10T00:24:41;-16958.19;;;-3.62;65.76
15193;BME280;7697;51.630;7.484;2024-01-10T00:29:44;-16956.34;;;-3.68;65.22
15193;BME280;7697;51.630;7.484;2024-01-10T00:34:46;-16956.84;;;-3.66;65.88
15193;BME280;7697;51.630;7.484;2024-01-10T00:39:48;-16953.81;;;-3.75;65.51
15193;BME280;7697;51.630;7.484;2024-01-10T00:44:51;-16956.34;;;-3.68;66.69
15193;BME280;7697;51.630;7.484;2024-01-10T00:49:52;-16956.84;;;-3.66;67.19
15193;BME280;7697;51.630;7.484;2024-01-10T00:54:54;-16953.81;;;-3.75;67.72
15193;BME280;7697;51.630;7.484;2024-01-10T00:59:57;-16953.16;;;-3.78;68.47
15193;BME280;7697;51.630;7.484;2024-01-10T01:04:58;-16952.50;;;-3.80;69.32
15193;BME280;7697;51.630;7.484;2024-01-10T01:10:00;-16948.13;;;-3.93;69.28
15193;BME280;7697;51.630;7.484;2024-01-10T01:15:05;-16950.81;;;-3.85;70.19
15193;BME280;7697;51.630;7.484;2024-01-10T01:20:07;-16947.13;;;-3.96;70.39
15193;BME280;7697;51.630;7.484;2024-01-10T01:25:10;-16941.44;;;-4.13;70.34
15193;BME280;7697;51.630;7.484;2024-01-10T01:30:13;-16941.13;;;-4.14;71.39
15193;BME280;7697;51.630;7.484;2024-01-10T01:35:14;-16939.44;;;-4.19;71.44
15193;BME280;7697;51.630;7.484;2024-01-10T01:40:21;-16937.44;;;-4.25;72.22
15193;BME280;7697;51.630;7.484;2024-01-10T01:45:24;-16936.94;;;-4.27;72.74
15193;BME280;7697;51.630;7.484;2024-01-10T01:50:26;-16935.44;;;-4.31;72.46
15193;BME280;7697;51.630;7.484;2024-01-10T01:55:28;-16933.75;;;-4.36;72.98
15193;BME280;7697;51.630;7.484;2024-01-10T02:00:31;-16932.75;;;-4.39;73.25
15193;BME280;7697;51.630;7.484;2024-01-10T02:05:32;-16928.41;;;-4.53;73.39
15193;BME280;7697;51.630;7.484;2024-01-10T02:10:34;-16927.06;;;-4.57;72.06
15193;BME280;7697;51.630;7.484;2024-01-10T02:15:38;-16926.06;;;-4.60;72.67
15193;BME280;7697;51.630;7.484;2024-01-10T02:20:43;-16928.22;;;-4.53;72.45
15193;BME280;7697;51.630;7.484;2024-01-10T02:25:46;-16926.38;;;-4.59;72.32
15193;BME280;7697;51.630;7.484;2024-01-10T02:30:48;-16923.72;;;-4.67;72.28
15193;BME280;7697;51.630;7.484;2024-01-10T02:35:49;-16925.38;;;-4.62;72.22
15193;BME280;7697;51.630;7.484;2024-01-10T02:40:52;-16926.22;;;-4.59;72.32
15193;BME280;7697;51.630;7.484;2024-01-10T02:45:56;-16924.22;;;-4.65;72.22
15193;BME280;7697;51.630;7.484;2024-01-10T02:50:59;-16924.72;;;-4.64;71.85
15193;BME280;7697;51.630;7.484;2024-01-10T02:56:02;-16925.38;;;-4.62;72.12
15193;BME280;7697;51.630;7.484;2024-01-10T03:01:04;-16924.72;;;-4.64;71.57
15193;BME280;7697;51.630;7.484;2024-01-10T03:06:05;-16924.03;;;-4.66;71.77
15193;BME280;7697;51.630;7.484;2024-01-10T03:11:08;-16923.72;;;-4.67;71.43
15193;BME280;7697;51.630;7.484;2024-01-10T03:16:10;-16923.03;;;-4.69;71.07
15193;BME280;7697;51.630;7.484;2024-01-10T03:21:11;-16923.22;;;-4.68;71.55
15193;BME280;7697;51.630;7.484;2024-01-10T03:26:14;-16922.53;;;-4.70;72.13
15193;BME280;7697;51.630;7.484;2024-01-10T03:31:16;-16924.53;;;-4.64;71.54
15193;BME280;7697;51.630;7.484;2024-01-10T03:36:18;-16925.03;;;-4.63;72.09
15193;BME280;7697;51.630;7.484;2024-01-10T03:41:21;-16924.72;;;-4.64;72.04
15193;BME280;7697;51.630;7.484;2024-01-10T03:46:22;-16923.72;;;-4.67;72.09
15193;BME280;7697;51.630;7.484;2024-01-10T03:51:24;-16922.53;;;-4.70;72.65
15193;BME280;7697;51.630;7.484;2024-01-10T03:56:27;-16922.38;;;-4.71;72.34
15193;BME280;7697;51.630;7.484;2024-01-10T04:01:29;-16922.88;;;-4.69;71.89
15193;BME280;7697;51.630;7.484;2024-01-10T04:06:30;-16921.88;;;-4.72;72.54
15193;BME280;7697;51.630;7.484;2024-01-10T04:11:33;-16921.88;;;-4.72;71.87
15193;BME280;7697;51.630;7.484;2024-01-10T04:16:35;-16920.88;;;-4.75;71.65
15193;BME280;7697;51.630;7.484;2024-01-10T04:21:37;-16923.38;;;-4.68;72.12
15193;BME280;7697;51.630;7.484;2024-01-10T04:26:40;-16923.53;;;-4.67;71.49
15193;BME280;7697;51.630;7.484;2024-01-10T04:31:42;-16922.53;;;-4.70;71.79
15193;BME280;7697;51.630;7.484;2024-01-10T04:36:43;-16922.53;;;-4.70;71.88
15193;BME280;7697;51.630;7.484;2024-01-10T04:41:47;-16920.69;;;-4.76;71.76
15193;BME280;7697;51.630;7.484;2024-01-10T04:46:48;-16922.38;;;-4.71;73.03
15193;BME280;7697;51.630;7.484;2024-01-10T04:51:50;-16920.69;;;-4.76;72.82
15193;BME280;7697;51.630;7.484;2024-01-10T04:56:53;-16920.53;;;-4.76;71.75
15193;BME280;7697;51.630;7.484;2024-01-10T05:01:55;-16922.03;;;-4.72;71.27
15193;BME280;7697;51.630;7.484;2024-01-10T05:06:57;-16922.88;;;-4.69;71.04
15193;BME280;7697;51.630;7.484;2024-01-10T05:11:59;-16919.19;;;-4.80;71.03
15193;BME280;7697;51.630;7.484;2024-01-10T05:17:01;-16923.38;;;-4.68;71.11
15193;BME280;7697;51.630;7.484;2024-01-10T05:22:03;-16922.72;;;-4.70;71.91
15193;BME280;7697;51.630;7.484;2024-01-10T05:27:06;-16922.88;;;-4.69;71.41
15193;BME280;7697;51.630;7.484;2024-01-10T05:32:08;-16922.03;;;-4.72;71.73
15193;BME280;7697;51.630;7.484;2024-01-10T05:37:09;-16920.88;;;-4.75;71.33
15193;BME280;7697;51.630;7.484;2024-01-10T05:42:12;-16919.34;;;-4.80;72.12
15193;BME280;7697;51.630;7.484;2024-01-10T05:47:14;-16921.38;;;-4.74;72.26
15193;BME280;7697;51.630;7.484;2024-01-10T05:52:16;-16920.38;;;-4.77;72.45
15193;BME280;7697;51.630;7.484;2024-01-10T05:57:19;-16919.88;;;-4.78;72.88
15193;BME280;7697;51.630;7.484;2024-01-10T06:02:21;-16917.69;;;-4.85;73.49
15193;BME280;7697;51.630;7.484;2024-01-10T06:07:24;-16918.03;;;-4.84;72.70
15193;BME280;7697;51.630;7.484;2024-01-10T06:12:27;-16916.69;;;-4.88;72.96
15193;BME280;7697;51.630;7.484;2024-01-10T06:17:29;-16914.34;;;-4.95;72.99
15193;BME280;7697;51.630;7.484;2024-01-10T06:22:32;-16915.69;;;-4.91;73.54
15193;BME280;7697;51.630;7.484;2024-01-10T06:27:35;-16915.84;;;-4.91;73.92
15193;BME280;7697;51.630;7.484;2024-01-10T06:32:36;-16916.00;;;-4.90;73.94
15193;BME280;7697;51.630;7.484;2024-01-10T06:37:38;-16915.34;;;-4.92;73.90
15193;BME280;7697;51.630;7.484;2024-01-10T06:42:41;-16912.66;;;-5.00;73.62
15193;BME280;7697;51.630;7.484;2024-01-10T06:47:43;-16915.00;;;-4.93;73.95
15193;BME280;7697;51.630;7.484;2024-01-10T06:52:44;-16914.00;;;-4.96;73.77
15193;BME280;7697;51.630;7.484;2024-01-10T06:57:47;-16914.69;;;-4.94;74.27
15193;BME280;7697;51.630;7.484;2024-01-10T07:02:51;-16915.84;;;-4.91;74.02
15193;BME280;7697;51.630;7.484;2024-01-10T07:07:53;-16914.19;;;-4.96;73.79
15193;BME280;7697;51.630;7.484;2024-01-10T07:12:56;-16916.69;;;-4.88;74.41
15193;BME280;7697;51.630;7.484;2024-01-10T07:17:58;-16920.19;;;-4.77;74.32
15193;BME280;7697;51.630;7.484;2024-01-10T07:22:59;-16919.19;;;-4.80;73.68
15193;BME280;7697;51.630;7.484;2024-01-10T07:28:03;-16916.00;;;-4.90;73.97
15193;BME280;7697;51.630;7.484;2024-01-10T07:33:05;-16920.38;;;-4.77;75.15
15193;BME280;7697;51.630;7.484;2024-01-10T07:38:08;-16919.88;;;-4.78;75.94
15193;BME280;7697;51.630;7.484;2024-01-10T07:43:11;-16919.34;;;-4.80;75.45
15193;BME280;7697;51.630;7.484;2024-01-10T07:48:12;-16920.03;;;-4.78;76.45
15193;BME280;7697;51.630;7.484;2024-01-10T07:53:14;-16917.84;;;-4.84;75.27
15193;BME280;7697;51.630;7.484;2024-01-10T07:58:17;-16916.50;;;-4.88;75.04
15193;BME280;7697;51.630;7.484;2024-01-10T08:03:19;-16914.69;;;-4.94;74.27
15193;BME280;7697;51.630;7.484;2024-01-10T08:08:21;-16917.03;;;-4.87;73.68
15193;BME280;7697;51.630;7.484;2024-01-10T08:13:24;-16916.69;;;-4.88;73.57
15193;BME280;7697;51.630;7.484;2024-01-10T08:18:25;-16919.69;;;-4.79;72.88
15193;BME280;7697;51.630;7.484;2024-01-10T08:23:27;-16925.03;;;-4.63;72.63
15193;BME280;7697;51.630;7.484;2024-01-10T08:28:30;-16928.06;;;-4.54;73.36
15193;BME280;7697;51.630;7.484;2024-01-10T08:33:32;-16931.75;;;-4.42;72.43
15193;BME280;7697;51.630;7.484;2024-01-10T08:38:34;-16936.75;;;-4.27;72.20
15193;BME280;7697;51.630;7.484;2024-01-10T08:43:37;-16942.78;;;-4.09;71.57
15193;BME280;7697;51.630;7.484;2024-01-10T08:48:41;-16944.78;;;-4.03;70.95
15193;BME280;7697;51.630;7.484;2024-01-10T08:53:43;-16952.16;;;-3.81;70.13
15193;BME280;7697;51.630;7.484;2024-01-10T08:58:46;-16956.84;;;-3.66;69.87
15193;BME280;7697;51.630;7.484;2024-01-10T09:03:47;-16965.53;;;-3.40;69.30
15193;BME280;7697;51.630;7.484;2024-01-10T09:08:49;-16974.56;;;-3.13;68.72
15193;BME280;7697;51.630;7.484;2024-01-10T09:13:52;-16983.44;;;-2.86;68.63
15193;BME280;7697;51.630;7.484;2024-01-10T09:18:54;-16994.66;;;-2.52;67.47
15193;BME280;7697;51.630;7.484;2024-01-10T09:23:57;-17005.22;;;-2.20;66.55
15193;BME280;7697;51.630;7.484;2024-01-10T09:29:00;-17015.75;;;-1.88;65.63
15193;BME280;7697;51.630;7.484;2024-01-10T09:34:02;-17033.16;;;-1.35;64.15
15193;BME280;7697;51.630;7.484;2024-01-10T09:39:05;-17034.16;;;-1.32;63.79
15193;BME280;7697;51.630;7.484;2024-01-10T09:44:15;-17042.72;;;-1.06;63.41
15193;BME280;7697;51.630;7.484;2024-01-10T09:49:18;-17056.63;;;-0.64;62.81
15193;BME280;7697;51.630;7.484;2024-01-10T09:54:24;-17065.31;;;-0.38;61.69
15193;BME280;7697;51.630;7.484;2024-01-10T09:59:28;-17069.50;;;-0.25;60.06
15193;BME280;7697;51.630;7.484;2024-01-10T10:04:30;-17077.03;;;-0.03;59.77
15193;BME280;7697;51.630;7.484;2024-01-10T10:09:32;-17085.09;;;0.22;57.56
15193;BME280;7697;51.630;7.484;2024-01-10T10:14:35;-17087.25;;;0.28;57.87
15193;BME280;7697;51.630;7.484;2024-01-10T10:19:37;-17094.47;;;0.50;57.22
15193;BME280;7697;51.630;7.484;2024-01-10T10:24:39;-17094.81;;;0.51;56.10
15193;BME280;7697;51.630;7.484;2024-01-10T10:29:43;-17095.47;;;0.53;56.23
15193;BME280;7697;51.630;7.484;2024-01-10T10:34:44;-17094.28;;;0.50;55.00
15193;BME280;7697;51.630;7.484;2024-01-10T10:39:46;-17096.81;;;0.57;55.44
15193;BME280;7697;51.630;7.484;2024-01-10T10:44:50;-17098.47;;;0.62;55.38
15193;BME280;7697;51.630;7.484;2024-01-10T10:49:55;-17098.31;;;0.62;54.52
15193;BME280;7697;51.630;7.484;2024-01-10T10:54:58;-17102.50;;;0.74;55.21
15193;BME280;7697;51.630;7.484;2024-01-10T11:00:02;-17104.00;;;0.79;54.90
15193;BME280;7697;51.630;7.484;2024-01-10T11:05:09;-17109.03;;;0.94;54.44
15193;BME280;7697;51.630;7.484;2024-01-10T11:10:13;-17107.69;;;0.90;55.29
15193;BME280;7697;51.630;7.484;2024-01-10T11:15:28;-17111.88;;;1.03;54.06
15193;BME280;7697;51.630;7.484;2024-01-10T11:20:51;-17110.53;;;0.99;53.88
15193;BME280;7697;51.630;7.484;2024-01-10T11:25:57;-17106.53;;;0.87;53.99
15193;BME280;7697;51.630;7.484;2024-01-10T11:31:01;-17108.03;;;0.91;53.39
15193;BME280;7697;51.630;7.484;2024-01-10T11:36:11;-17108.88;;;0.94;53.99
15193;BME280;7697;51.630;7.484;2024-01-10T11:41:20;-17107.53;;;0.90;53.92
15193;BME280;7697;51.630;7.484;2024-01-10T11:46:23;-17110.53;;;0.99;54.04
15193;BME280;7697;51.630;7.484;2024-01-10T11:51:25;-17109.88;;;0.97;53.84
15193;BME280;7697;51.630;7.484;2024-01-10T11:56:38;-17111.22;;;1.01;54.27
15193;BME280;7697;51.630;7.484;2024-01-10T12:01:42;-17114.22;;;1.10;54.55
15193;BME280;7697;51.630;7.484;2024-01-10T12:06:44;-17115.91;;;1.15;54.52
15193;BME280;7697;51.630;7.484;2024-01-10T12:11:46;-17117.75;;;1.21;54.70
15193;BME280;7697;51.630;7.484;2024-01-10T12:16:50;-17120.75;;;1.30;53.57
15193;BME280;7697;51.630;7.484;2024-01-10T12:21:52;-17122.25;;;1.34;53.81
15193;BME280;7697;51.630;7.484;2024-01-10T12:26:55;-17126.28;;;1.46;53.59
15193;BME280;7697;51.630;7.484;2024-01-10T12:31:59;-17128.28;;;1.52;54.51
15193;BME280;7697;51.630;7.484;2024-01-10T12:37:01;-17131.31;;;1.62;54.36
15193;BME280;7697;51.630;7.484;2024-01-10T12:42:03;-17133.31;;;1.68;54.47
15193;BME280;7697;51.630;7.484;2024-01-10T12:47:06;-17135.50;;;1.74;54.61
15193;BME280;7697;51.630;7.484;2024-01-10T12:52:08;-17137.19;;;1.79;54.50
15193;BME280;7697;51.630;7.484;2024-01-10T12:57:09;-17142.72;;;1.96;53.98
15193;BME280;7697;51.630;7.484;2024-01-10T13:02:13;-17146.91;;;2.09;53.61
15193;BME280;7697;51.630;7.484;2024-01-10T13:07:14;-17153.09;;;2.28;53.82
15193;BME280;7697;51.630;7.484;2024-01-10T13:12:16;-17157.97;;;2.42;53.21
15193;BME280;7697;51.630;7.484;2024-01-10T13:17:19;-17164.81;;;2.63;54.43
15193;BME280;7697;51.630;7.484;2024-01-10T13:22:21;-17171.38;;;2.83;54.31
15193;BME280;7697;51.630;7.484;2024-01-10T13:27:23;-17179.06;;;3.06;53.41
15193;BME280;7697;51.630;7.484;2024-01-10T13:32:26;-17178.72;;;3.05;53.56
15193;BME280;7697;51.630;7.484;2024-01-10T13:37:28;-17184.78;;;3.23;53.66
15193;BME280;7697;51.630;7.484;2024-01-10T13:42:31;-17188.63;;;3.35;54.06
15193;BME280;7697;51.630;7.484;2024-01-10T13:47:35;-17192.97;;;3.48;53.39
15193;BME280;7697;51.630;7.484;2024-01-10T13:52:36;-17193.47;;;3.50;52.31
15193;BME280;7697;51.630;7.484;2024-01-10T13:57:38;-17193.81;;;3.51;51.87
15193;BME280;7697;51.630;7.484;2024-01-10T14:02:41;-17184.28;;;3.22;51.59
15193;BME280;7697;51.630;7.484;2024-01-10T14:07:43;-17175.88;;;2.96;51.97
15193;BME280;7697;51.630;7.484;2024-01-10T14:12:47;-17169.53;;;2.77;52.56
15193;BME280;7697;51.630;7.484;2024-01-10T14:17:50;-17164.31;;;2.61;53.02
15193;BME280;7697;51.630;7.484;2024-01-10T14:22:52;-17158.47;;;2.44;53.09
15193;BME280;7697;51.630;7.484;2024-01-10T14:27:53;-17153.44;;;2.29;54.47
15193;BME280;7697;51.630;7.484;2024-01-10T14:32:56;-17153.94;;;2.30;55.35
15193;BME280;7697;51.630;7.484;2024-01-10T14:37:59;-17150.25;;;2.19;55.34
15193;BME280;7697;51.630;7.484;2024-01-10T14:43:01;-17147.22;;;2.10;55.73
15193;BME280;7697;51.630;7.484;2024-01-10T14:48:04;-17147.06;;;2.09;56.90
15193;BME280;7697;51.630;7.484;2024-01-10T14:53:07;-17142.53;;;1.96;57.21
15193;BME280;7697;51.630;7.484;2024-01-10T14:58:09;-17139.03;;;1.85;57.59
15193;BME280;7697;51.630;7.484;2024-01-10T15:03:12;-17133.00;;;1.67;57.76
15193;BME280;7697;51.630;7.484;2024-01-10T15:08:14;-17128.28;;;1.52;57.50
15193;BME280;7697;51.630;7.484;2024-01-10T15:13:17;-17128.81;;;1.54;58.12
15193;BME280;7697;51.630;7.484;2024-01-10T15:18:21;-17123.78;;;1.39;58.79
15193;BME280;7697;51.630;7.484;2024-01-10T15:23:23;-17121.94;;;1.33;58.79
15193;BME280;7697;51.630;7.484;2024-01-10T15:28:25;-17119.91;;;1.27;59.28
15193;BME280;7697;51.630;7.484;2024-01-10T15:33:28;-17113.22;;;1.07;58.65
15193;BME280;7697;51.630;7.484;2024-01-10T15:38:29;-17108.53;;;0.93;58.92
15193;BME280;7697;51.630;7.484;2024-01-10T15:43:31;-17108.53;;;0.93;59.76
15193;BME280;7697;51.630;7.484;2024-01-10T15:48:34;-17104.19;;;0.80;60.02
15193;BME280;7697;51.630;7.484;2024-01-10T15:53:36;-17102.34;;;0.74;60.23
15193;BME280;7697;51.630;7.484;2024-01-10T15:58:38;-17098.97;;;0.64;60.99
15193;BME280;7697;51.630;7.484;2024-01-10T16:03:41;-17099.50;;;0.65;62.08
15193;BME280;7697;51.630;7.484;2024-01-10T16:08:43;-17096.47;;;0.56;61.93
15193;BME280;7697;51.630;7.484;2024-01-10T16:13:44;-17093.97;;;0.49;62.17
15193;BME280;7697;51.630;7.484;2024-01-10T16:18:48;-17091.13;;;0.40;63.12
15193;BME280;7697;51.630;7.484;2024-01-10T16:23:49;-17088.09;;;0.31;63.41
15193;BME280;7697;51.630;7.484;2024-01-10T16:28:51;-17085.75;;;0.24;64.37
15193;BME280;7697;51.630;7.484;2024-01-10T16:33:55;-17085.59;;;0.23;63.87
15193;BME280;7697;51.630;7.484;2024-01-10T16:38:56;-17078.88;;;0.03;64.81
15193;BME280;7697;51.630;7.484;2024-01-10T16:43:58;-17079.72;;;0.06;65.26
15193;BME280;7697;51.630;7.484;2024-01-10T16:49:01;-17076.03;;;-0.06;65.17
15193;BME280;7697;51.630;7.484;2024-01-10T16:54:04;-17074.38;;;-0.11;66.13
15193;BME280;7697;51.630;7.484;2024-01-10T16:59:05;-17072.69;;;-0.16;65.91
15193;BME280;7697;51.630;7.484;2024-01-10T17:04:08;-17071.53;;;-0.19;66.12
15193;BME280;7697;51.630;7.484;2024-01-10T17:09:10;-17071.00;;;-0.21;67.04
15193;BME280;7697;51.630;7.484;2024-01-10T17:14:12;-17071.34;;;-0.20;67.20
15193;BME280;7697;51.630;7.484;2024-01-10T17:19:17;-17067.50;;;-0.31;67.28
15193;BME280;7697;51.630;7.484;2024-01-10T17:24:19;-17065.66;;;-0.37;67.77
15193;BME280;7697;51.630;7.484;2024-01-10T17:29:21;-17066.50;;;-0.34;68.03
15193;BME280;7697;51.630;7.484;2024-01-10T17:34:24;-17064.66;;;-0.40;67.98
15193;BME280;7697;51.630;7.484;2024-01-10T17:39:25;-17060.97;;;-0.51;67.71
15193;BME280;7697;51.630;7.484;2024-01-10T17:44:27;-17060.97;;;-0.51;68.66
15193;BME280;7697;51.630;7.484;2024-01-10T17:49:30;-17060.97;;;-0.51;69.55
15193;BME280;7697;51.630;7.484;2024-01-10T17:54:32;-17061.31;;;-0.50;69.53
15193;BME280;7697;51.630;7.484;2024-01-10T17:59:33;-17059.97;;;-0.54;69.98
15193;BME280;7697;51.630;7.484;2024-01-10T18:04:37;-17055.28;;;-0.68;70.15
15193;BME280;7697;51.630;7.484;2024-01-10T18:09:41;-17053.25;;;-0.74;70.24
15193;BME280;7697;51.630;7.484;2024-01-10T18:14:43;-17047.56;;;-0.92;69.97
15193;BME280;7697;51.630;7.484;2024-01-10T18:19:47;-17045.06;;;-0.99;70.33
15193;BME280;7697;51.630;7.484;2024-01-10T18:24:48;-17045.56;;;-0.98;70.67
15193;BME280;7697;51.630;7.484;2024-01-10T18:29:50;-17042.53;;;-1.07;70.35
15193;BME280;7697;51.630;7.484;2024-01-10T18:34:53;-17042.22;;;-1.08;70.66
15193;BME280;7697;51.630;7.484;2024-01-10T18:39:55;-17039.53;;;-1.16;71.06
15193;BME280;7697;51.630;7.484;2024-01-10T18:44:57;-17042.22;;;-1.08;71.82
15193;BME280;7697;51.630;7.484;2024-01-10T18:50:00;-17040.88;;;-1.12;71.33
15193;BME280;7697;51.630;7.484;2024-01-10T18:55:01;-17039.19;;;-1.17;71.86
15193;BME280;7697;51.630;7.484;2024-01-10T19:00:04;-17039.88;;;-1.15;72.57
15193;BME280;7697;51.630;7.484;2024-01-10T19:05:08;-17038.34;;;-1.20;72.96
15193;BME280;7697;51.630;7.484;2024-01-10T19:10:10;-17037.69;;;-1.22;72.12
15193;BME280;7697;51.630;7.484;2024-01-10T19:15:12;-17033.16;;;-1.35;72.97
15193;BME280;7697;51.630;7.484;2024-01-10T19:20:15;-17034.84;;;-1.30;73.38
15193;BME280;7697;51.630;7.484;2024-01-10T19:25:17;-17033.50;;;-1.34;73.60
15193;BME280;7697;51.630;7.484;2024-01-10T19:30:19;-17032.84;;;-1.36;73.22
15193;BME280;7697;51.630;7.484;2024-01-10T19:35:23;-17028.47;;;-1.49;73.67
15193;BME280;7697;51.630;7.484;2024-01-10T19:40:24;-17027.97;;;-1.51;74.37
15193;BME280;7697;51.630;7.484;2024-01-10T19:45:26;-17029.31;;;-1.47;74.86
15193;BME280;7697;51.630;7.484;2024-01-10T19:50:29;-17026.13;;;-1.57;74.00
15193;BME280;7697;51.630;7.484;2024-01-10T19:55:31;-17021.78;;;-1.70;75.10
15193;BME280;7697;51.630;7.484;2024-01-10T20:00:33;-17021.94;;;-1.69;74.84
15193;BME280;7697;51.630;7.484;2024-01-10T20:05:36;-17021.13;;;-1.72;75.52
15193;BME280;7697;51.630;7.484;2024-01-10T20:10:39;-17017.09;;;-1.84;75.07
15193;BME280;7697;51.630;7.484;2024-01-10T20:15:40;-17017.44;;;-1.83;75.80
15193;BME280;7697;51.630;7.484;2024-01-10T20:20:44;-17017.44;;;-1.83;75.68
15193;BME280;7697;51.630;7.484;2024-01-10T20:25:46;-17013.75;;;-1.94;76.17
15193;BME280;7697;51.630;7.484;2024-01-10T20:30:48;-17013.56;;;-1.95;76.28
15193;BME280;7697;51.630;7.484;2024-01-10T20:35:51;-17013.75;;;-1.94;76.11
15193;BME280;7697;51.630;7.484;2024-01-10T20:40:53;-17011.56;;;-2.01;76.39
15193;BME280;7697;51.630;7.484;2024-01-10T20:45:54;-17010.56;;;-2.04;76.75
15193;BME280;7697;51.630;7.484;2024-01-10T20:50:58;-17005.72;;;-2.18;76.75
15193;BME280;7697;51.630;7.484;2024-01-10T20:55:59;-17005.72;;;-2.18;77.53
15193;BME280;7697;51.630;7.484;2024-01-10T21:01:01;-17004.38;;;-2.22;77.65
15193;BME280;7697;51.630;7.484;2024-01-10T21:06:05;-17000.03;;;-2.36;77.51
15193;BME280;7697;51.630;7.484;2024-01-10T21:11:09;-16999.00;;;-2.39;77.45
15193;BME280;7697;51.630;7.484;2024-01-10T21:16:11;-16999.00;;;-2.39;78.19
15193;BME280;7697;51.630;7.484;2024-01-10T21:21:14;-16996.50;;;-2.46;78.23
15193;BME280;7697;51.630;7.484;2024-01-10T21:26:16;-16996.50;;;-2.46;78.72
15193;BME280;7697;51.630;7.484;2024-01-10T21:31:18;-16995.50;;;-2.49;78.40
15193;BME280;7697;51.630;7.484;2024-01-10T21:36:22;-16997.00;;;-2.45;78.30
15193;BME280;7697;51.630;7.484;2024-01-10T21:41:23;-16994.34;;;-2.53;78.29
15193;BME280;7697;51.630;7.484;2024-01-10T21:46:25;-16995.16;;;-2.50;78.61
15193;BME280;7697;51.630;7.484;2024-01-10T21:51:28;-16992.31;;;-2.59;78.93
15193;BME280;7697;51.630;7.484;2024-01-10T21:56:29;-16992.00;;;-2.60;79.03
15193;BME280;7697;51.630;7.484;2024-01-10T22:01:31;-16989.97;;;-2.66;79.22
15193;BME280;7697;51.630;7.484;2024-01-10T22:06:34;-16992.31;;;-2.59;79.29
15193;BME280;7697;51.630;7.484;2024-01-10T22:11:36;-16988.81;;;-2.70;79.23
15193;BME280;7697;51.630;7.484;2024-01-10T22:16:37;-16990.66;;;-2.64;79.37
15193;BME280;7697;51.630;7.484;2024-01-10T22:21:40;-16989.31;;;-2.68;79.44
15193;BME280;7697;51.630;7.484;2024-01-10T22:26:42;-16983.13;;;-2.87;79.56
15193;BME280;7697;51.630;7.484;2024-01-10T22:31:44;-16985.97;;;-2.78;79.60
15193;BME280;7697;51.630;7.484;2024-01-10T22:36:47;-16984.44;;;-2.83;79.65
15193;BME280;7697;51.630;7.484;2024-01-10T22:41:48;-16982.63;;;-2.88;79.75
15193;BME280;7697;51.630;7.484;2024-01-10T22:46:51;-16981.59;;;-2.91;79.99
15193;BME280;7697;51.630;7.484;2024-01-10T22:51:54;-16979.44;;;-2.98;80.37
15193;BME280;7697;51.630;7.484;2024-01-10T22:56:56;-16977.09;;;-3.05;80.15
15193;BME280;7697;51.630;7.484;2024-01-10T23:01:57;-16976.09;;;-3.08;80.34
15193;BME280;7697;51.630;7.484;2024-01-10T23:07:00;-16972.56;;;-3.19;80.63
15193;BME280;7697;51.630;7.484;2024-01-10T23:12:04;-16971.72;;;-3.21;81.00
15193;BME280;7697;51.630;7.484;2024-01-10T23:17:05;-16966.22;;;-3.38;81.11
15193;BME280;7697;51.630;7.484;2024-01-10T23:22:08;-16964.03;;;-3.45;81.33
15193;BME280;7697;51.630;7.484;2024-01-10T23:27:10;-16959.69;;;-3.58;80.96
15193;BME280;7697;51.630;7.484;2024-01-10T23:32:12;-16960.84;;;-3.54;81.36
15193;BME280;7697;51.630;7.484;2024-01-10T23:37:15;-16960.84;;;-3.54;81.44
15193;BME280;7697;51.630;7.484;2024-01-10T23:42:16;-16957.50;;;-3.64;81.24
15193;BME280;7697;51.630;7.484;2024-01-10T23:47:18;-16958.84;;;-3.60;81.57
15193;BME280;7697;51.630;7.484;2024-01-10T23:52:21;-16956.84;;;-3.66;82.24
15193;BME280;7697;51.630;7.484;2024-01-10T23:57:23;-16952.81;;;-3.79;82.04
